Time;durP1;ratioP1;P1;durP2;ratioP2;P2;SDS_P1;SDS_P2;PMS_P1;PMS_P2;Temp;Humidity;BMP_temperature;BMP_pressure;BME280_temperature;BME280_humidity;BME280_pressure;Samples;Min_cycle;Max_cycle;Signal;HPM_P1;HPM_P2
2023/03/03 00:00:43;;;;;;;14.10;9.48;;;;;2.40;98766.00;;;;4932053;29;20056;-61
2023/03/03 00:03:14;;;;;;;17.33;9.43;;;;;2.40;98759.00;;;;4932152;29;20051;-58
2023/03/03 00:05:41;;;;;;;16.17;9.10;;;;;2.40;98764.00;;;;4931368;29;20051;-62
2023/03/03 00:08:09;;;;;;;16.02;9.15;;;;;2.30;98754.00;;;;4931919;29;20047;-59
2023/03/03 00:10:37;;;;;;;16.65;9.38;;;;;2.30;98762.00;;;;4931641;29;20503;-61
2023/03/03 00:13:12;;;;;;;18.88;9.30;;;;;2.30;98758.00;;;;4930585;29;20051;-61
2023/03/03 00:15:38;;;;;;;14.18;9.05;;;;;2.30;98758.00;;;;4930790;29;20166;-60
2023/03/03 00:18:21;;;;;;;18.02;8.93;;;;;2.30;98763.00;;;;4930494;29;20040;-62
2023/03/03 00:20:52;;;;;;;14.80;8.63;;;;;2.20;98768.00;;;;4929715;29;20378;-61
2023/03/03 00:23:36;;;;;;;14.98;9.43;;;;;2.20;98767.00;;;;4930183;29;20048;-61
2023/03/03 00:26:22;;;;;;;19.38;8.93;;;;;2.10;98762.00;;;;4929155;29;20056;-58
2023/03/03 00:28:51;;;;;;;14.50;9.02;;;;;2.10;98767.00;;;;4930678;29;20043;-58
2023/03/03 00:31:21;;;;;;;23.50;9.77;;;;;2.20;98767.00;;;;4930632;29;20111;-57
2023/03/03 00:33:53;;;;;;;21.25;9.18;;;;;2.30;98763.00;;;;4929828;29;20566;-57
2023/03/03 00:43:20;;;;;;;15.68;9.63;;;;;2.00;98772.00;;;;4905246;29;1064081;-61
2023/03/03 00:45:49;;;;;;;17.15;9.35;;;;;1.90;98778.00;;;;4915931;29;20059;-60
2023/03/03 00:48:28;;;;;;;16.25;8.55;;;;;1.90;98776.00;;;;4917404;29;20044;-59
2023/03/03 00:51:00;;;;;;;20.05;9.95;;;;;1.90;98777.00;;;;4930981;29;20052;-61
2023/03/03 00:53:29;;;;;;;15.80;9.18;;;;;1.90;98773.00;;;;4931502;29;20501;-60
2023/03/03 00:55:56;;;;;;;13.75;9.05;;;;;1.80;98771.00;;;;4931763;29;20112;-60
2023/03/03 00:58:23;;;;;;;16.17;9.48;;;;;1.80;98777.00;;;;4917588;29;20507;-62
2023/03/03 01:00:52;;;;;;;18.45;10.00;;;;;1.80;98776.00;;;;4917040;29;20055;-60
2023/03/03 01:03:25;;;;;;;15.77;9.57;;;;;1.80;98783.00;;;;4916828;29;20048;-60
2023/03/03 01:05:53;;;;;;;18.52;10.02;;;;;1.90;98791.00;;;;4931639;29;20055;-60
2023/03/03 01:08:21;;;;;;;16.00;10.07;;;;;1.90;98782.00;;;;4931744;29;20129;-60
2023/03/03 01:10:50;;;;;;;17.17;9.10;;;;;1.80;98774.00;;;;4916816;29;20040;-60
2023/03/03 01:13:18;;;;;;;14.43;8.73;;;;;1.80;98773.00;;;;4917635;29;20099;-60
2023/03/03 01:15:45;;;;;;;19.42;10.07;;;;;1.90;98780.00;;;;4917445;29;20051;-60
2023/03/03 01:18:13;;;;;;;16.75;8.77;;;;;1.90;98774.00;;;;4917580;29;20087;-60
2023/03/03 01:20:40;;;;;;;13.27;8.77;;;;;2.00;98777.00;;;;4917153;29;20503;-61
2023/03/03 01:23:07;;;;;;;16.88;9.50;;;;;1.90;98773.00;;;;4917096;29;20512;-60
2023/03/03 01:25:33;;;;;;;20.55;8.90;;;;;1.90;98775.00;;;;4932966;29;20048;-60
2023/03/03 01:28:00;;;;;;;15.68;9.48;;;;;1.70;98779.00;;;;4933578;29;20048;-60
2023/03/03 01:30:26;;;;;;;22.30;9.35;;;;;1.70;98773.00;;;;4918049;29;20080;-61
2023/03/03 01:32:53;;;;;;;14.70;9.55;;;;;1.70;98772.00;;;;4934960;29;20059;-60
2023/03/03 01:35:20;;;;;;;15.63;9.30;;;;;1.70;98773.00;;;;4935487;29;20059;-60
2023/03/03 01:37:46;;;;;;;15.45;9.00;;;;;1.70;98775.00;;;;4933023;29;20158;-60
2023/03/03 01:40:16;;;;;;;16.75;8.95;;;;;1.80;98780.00;;;;4917570;29;20059;-60
2023/03/03 01:42:43;;;;;;;15.32;9.13;;;;;1.70;98783.00;;;;4918371;29;20048;-60
2023/03/03 01:45:30;;;;;;;14.27;8.98;;;;;1.80;98778.00;;;;4918651;29;20051;-61
2023/03/03 01:48:01;;;;;;;16.83;9.27;;;;;1.70;98778.00;;;;4932585;29;20048;-61
2023/03/03 01:50:31;;;;;;;16.83;8.98;;;;;1.70;98783.00;;;;4915684;29;20515;-60
2023/03/03 01:53:01;;;;;;;16.85;9.23;;;;;1.70;98777.00;;;;4901343;29;20052;-61
2023/03/03 01:55:32;;;;;;;18.80;8.90;;;;;1.50;98762.00;;;;4932603;29;20059;-59
2023/03/03 01:58:07;;;;;;;13.93;8.43;;;;;1.40;98767.00;;;;4917671;29;20111;-60
2023/03/03 02:00:38;;;;;;;14.10;8.23;;;;;1.50;98758.00;;;;4902367;29;20054;-60
2023/03/03 02:03:05;;;;;;;15.35;8.35;;;;;1.50;98758.00;;;;4921653;29;20084;-60
2023/03/03 02:05:34;;;;;;;12.50;8.15;;;;;1.40;98765.00;;;;4918599;29;20398;-60
2023/03/03 02:08:00;;;;;;;15.57;8.60;;;;;1.30;98756.00;;;;4919248;29;20044;-61
2023/03/03 02:10:28;;;;;;;13.13;7.72;;;;;1.40;98758.00;;;;4915887;29;20398;-60
2023/03/03 02:12:57;;;;;;;12.90;8.50;;;;;1.40;98755.00;;;;4931057;29;20060;-59
2023/03/03 02:15:31;;;;;;;13.43;8.57;;;;;1.40;98752.00;;;;4915109;29;20458;-60
2023/03/03 02:18:11;;;;;;;13.63;7.70;;;;;1.40;98750.00;;;;4915961;29;20416;-60
2023/03/03 02:21:02;;;;;;;14.40;9.15;;;;;1.40;98755.00;;;;4930074;29;20059;-59
2023/03/03 02:23:49;;;;;;;16.30;8.95;;;;;1.40;98755.00;;;;4930918;29;20404;-59
2023/03/03 02:26:25;;;;;;;18.42;8.95;;;;;1.40;98771.00;;;;4914922;29;20048;-60
2023/03/03 02:28:56;;;;;;;15.93;9.07;;;;;1.30;98766.00;;;;4914776;29;20044;-59
2023/03/03 02:31:27;;;;;;;14.30;8.60;;;;;1.40;98773.00;;;;4930051;29;20135;-60
2023/03/03 02:33:54;;;;;;;16.48;9.23;;;;;1.40;98767.00;;;;4930566;29;20048;-60
2023/03/03 02:36:43;;;;;;;14.45;8.32;;;;;1.40;98763.00;;;;4915892;29;20386;-60
2023/03/03 02:39:17;;;;;;;16.42;9.43;;;;;1.40;98770.00;;;;4930360;29;20044;-60
2023/03/03 02:42:01;;;;;;;16.65;9.43;;;;;1.30;98756.00;;;;4930124;29;20044;-60
2023/03/03 02:44:50;;;;;;;17.92;9.93;;;;;1.30;98760.00;;;;4930535;29;20051;-61
2023/03/03 02:47:17;;;;;;;14.88;9.63;;;;;1.20;98748.00;;;;4930764;29;20063;-61
2023/03/03 02:49:44;;;;;;;15.23;8.80;;;;;1.10;98756.00;;;;4930342;29;20385;-61
2023/03/03 02:52:11;;;;;;;18.38;10.07;;;;;1.00;98759.00;;;;4930222;29;20119;-61
2023/03/03 02:54:40;;;;;;;15.82;9.07;;;;;1.00;98769.00;;;;4915184;29;20055;-61
2023/03/03 02:57:07;;;;;;;17.45;10.15;;;;;0.90;98756.00;;;;4930957;29;20080;-60
2023/03/03 02:59:34;;;;;;;17.05;9.45;;;;;0.90;98756.00;;;;4914936;29;20047;-61
2023/03/03 03:02:07;;;;;;;18.42;9.50;;;;;1.00;98755.00;;;;4930348;29;20052;-61
2023/03/03 03:04:34;;;;;;;16.77;9.32;;;;;1.10;98759.00;;;;4915801;29;20044;-60
2023/03/03 03:07:01;;;;;;;13.73;8.60;;;;;1.20;98761.00;;;;4914687;29;20143;-60
2023/03/03 03:09:29;;;;;;;14.95;8.25;;;;;1.20;98756.00;;;;4930431;29;20076;-60
2023/03/03 03:12:01;;;;;;;15.40;7.88;;;;;1.20;98752.00;;;;4929436;29;20479;-60
2023/03/03 03:14:29;;;;;;;13.85;7.97;;;;;1.10;98756.00;;;;4899280;29;20139;-60
2023/03/03 03:16:57;;;;;;;16.42;8.88;;;;;1.10;98759.00;;;;4930383;29;20103;-60
2023/03/03 03:19:25;;;;;;;15.63;9.48;;;;;1.10;98753.00;;;;4930697;29;20139;-60
2023/03/03 03:21:52;;;;;;;15.38;8.55;;;;;1.00;98755.00;;;;4898361;29;20048;-60
2023/03/03 03:24:19;;;;;;;15.27;9.05;;;;;1.00;98759.00;;;;4949732;29;20048;-61
2023/03/03 03:26:52;;;;;;;14.30;8.68;;;;;1.00;98763.00;;;;4951857;28;20051;-61
2023/03/03 03:29:19;;;;;;;14.85;8.63;;;;;0.90;98749.00;;;;4952888;29;20062;-59
2023/03/03 03:31:46;;;;;;;14.98;9.38;;;;;0.80;98762.00;;;;4952399;29;20058;-60
2023/03/03 03:34:13;;;;;;;15.23;9.32;;;;;0.70;98757.00;;;;4938122;29;20048;-60
2023/03/03 03:36:39;;;;;;;13.63;8.55;;;;;0.70;98752.00;;;;4952600;29;20058;-60
2023/03/03 03:39:06;;;;;;;17.48;8.48;;;;;0.80;98750.00;;;;4952608;29;20054;-60
2023/03/03 03:41:36;;;;;;;15.90;8.48;;;;;0.90;98762.00;;;;4951772;29;20054;-60
2023/03/03 03:44:03;;;;;;;18.10;9.13;;;;;0.90;98767.00;;;;4952496;29;20095;-61
2023/03/03 03:46:29;;;;;;;14.98;8.48;;;;;0.80;98763.00;;;;4952312;29;20055;-60
2023/03/03 03:48:56;;;;;;;12.15;7.95;;;;;0.70;98766.00;;;;4952271;29;20044;-60
2023/03/03 03:51:24;;;;;;;16.65;8.40;;;;;0.60;98767.00;;;;4951524;29;20047;-60
2023/03/03 03:53:50;;;;;;;15.18;8.57;;;;;0.60;98757.00;;;;4937426;29;20071;-60
2023/03/03 03:56:17;;;;;;;21.88;8.90;;;;;0.50;98755.00;;;;4952224;29;20052;-60
2023/03/03 03:58:46;;;;;;;17.25;9.80;;;;;0.60;98744.00;;;;4951588;29;20047;-60
2023/03/03 04:01:14;;;;;;;12.82;8.60;;;;;0.70;98754.00;;;;4951391;29;20051;-60
2023/03/03 04:03:45;;;;;;;16.35;8.85;;;;;0.80;98759.00;;;;4952373;29;20058;-60
2023/03/03 04:06:15;;;;;;;15.60;8.82;;;;;0.70;98755.00;;;;4952105;29;20419;-60
2023/03/03 04:08:43;;;;;;;18.13;8.18;;;;;0.50;98749.00;;;;4951951;29;20046;-61
2023/03/03 04:11:10;;;;;;;15.98;8.80;;;;;0.50;98758.00;;;;4951494;29;20054;-61
2023/03/03 04:13:36;;;;;;;13.65;8.63;;;;;0.60;98764.00;;;;4951978;29;20528;-60
2023/03/03 04:16:05;;;;;;;16.58;9.80;;;;;0.50;98764.00;;;;4952461;29;20099;-60
2023/03/03 04:18:33;;;;;;;19.92;9.60;;;;;0.60;98765.00;;;;4951899;29;20054;-60
2023/03/03 04:21:00;;;;;;;13.93;8.65;;;;;0.60;98771.00;;;;4935000;29;20075;-60
2023/03/03 04:23:27;;;;;;;20.45;9.35;;;;;0.60;98761.00;;;;4951837;29;20056;-59
2023/03/03 04:25:54;;;;;;;24.30;12.52;;;;;0.70;98760.00;;;;4937156;29;20464;-59
2023/03/03 04:28:23;;;;;;;15.27;10.30;;;;;0.60;98760.00;;;;4952190;29;20134;-61
2023/03/03 04:30:50;;;;;;;17.83;9.52;;;;;0.50;98760.00;;;;4936240;29;20048;-61
2023/03/03 04:33:19;;;;;;;14.98;9.20;;;;;0.60;98757.00;;;;4951950;29;20139;-60
2023/03/03 04:35:47;;;;;;;15.27;9.00;;;;;0.60;98758.00;;;;4951685;29;20079;-60
2023/03/03 04:38:13;;;;;;;16.50;9.45;;;;;0.50;98758.00;;;;4950729;28;20051;-60
2023/03/03 04:40:41;;;;;;;17.10;10.05;;;;;0.50;98767.00;;;;4951129;29;20052;-60
2023/03/03 04:43:10;;;;;;;21.17;10.15;;;;;0.40;98770.00;;;;4935785;29;20082;-60
2023/03/03 04:45:36;;;;;;;17.63;9.18;;;;;0.50;98766.00;;;;4935569;29;20044;-61
2023/03/03 04:48:03;;;;;;;16.80;10.07;;;;;0.50;98767.00;;;;4951648;29;20075;-61
2023/03/03 04:50:31;;;;;;;15.25;9.07;;;;;0.50;98772.00;;;;4934861;29;20476;-61
2023/03/03 04:52:58;;;;;;;24.15;13.50;;;;;0.50;98770.00;;;;4935396;29;20526;-60
2023/03/03 04:55:25;;;;;;;12.40;8.43;;;;;0.50;98767.00;;;;4935322;29;20053;-60
2023/03/03 04:57:52;;;;;;;18.83;9.80;;;;;0.40;98775.00;;;;4936394;29;20416;-60
2023/03/03 05:00:19;;;;;;;16.98;9.40;;;;;0.40;98772.00;;;;4950151;29;20500;-60
2023/03/03 05:02:47;;;;;;;17.05;9.98;;;;;0.40;98771.00;;;;4936137;29;20123;-60
2023/03/03 05:05:13;;;;;;;14.82;8.93;;;;;0.50;98774.00;;;;4950845;29;20704;-60
2023/03/03 05:07:40;;;;;;;17.38;9.57;;;;;0.50;98779.00;;;;4935907;29;20044;-60
2023/03/03 05:10:07;;;;;;;19.40;9.77;;;;;0.50;98782.00;;;;4935275;29;20048;-60
2023/03/03 05:12:33;;;;;;;19.45;10.43;;;;;0.40;98773.00;;;;4935787;29;20525;-60
2023/03/03 05:15:00;;;;;;;16.10;9.50;;;;;0.40;98781.00;;;;4935756;29;20118;-59
2023/03/03 05:17:26;;;;;;;13.75;8.88;;;;;0.30;98776.00;;;;4935686;29;20560;-60
2023/03/03 05:19:56;;;;;;;15.18;8.70;;;;;0.20;98787.00;;;;4934897;29;20051;-60
2023/03/03 05:22:23;;;;;;;17.23;9.38;;;;;0.00;98785.00;;;;4935538;29;20122;-60
2023/03/03 05:24:50;;;;;;;16.02;9.27;;;;;0.00;98787.00;;;;4936192;29;20043;-59
2023/03/03 05:27:17;;;;;;;16.45;9.85;;;;;0.00;98792.00;;;;4951281;29;20048;-61
2023/03/03 05:29:43;;;;;;;15.05;8.98;;;;;0.10;98794.00;;;;4936168;29;20515;-60
2023/03/03 05:32:10;;;;;;;16.92;10.27;;;;;0.00;98794.00;;;;4935499;29;20043;-60
2023/03/03 05:34:37;;;;;;;13.77;8.55;;;;;0.00;98793.00;;;;4950797;29;20119;-62
2023/03/03 05:37:05;;;;;;;16.10;8.27;;;;;0.00;98788.00;;;;4951081;29;20242;-60
2023/03/03 05:39:33;;;;;;;17.58;9.88;;;;;0.10;98799.00;;;;4935495;29;20473;-61
2023/03/03 05:41:59;;;;;;;14.77;8.82;;;;;0.20;98802.00;;;;4949180;29;20052;-60
2023/03/03 05:44:26;;;;;;;14.20;9.10;;;;;0.20;98800.00;;;;4935612;29;20051;-60
2023/03/03 05:46:53;;;;;;;13.05;7.70;;;;;0.20;98799.00;;;;4935923;29;20501;-61
2023/03/03 05:49:19;;;;;;;19.80;8.45;;;;;0.10;98814.00;;;;4935683;29;20106;-61
2023/03/03 05:51:46;;;;;;;15.73;8.38;;;;;0.10;98803.00;;;;4936088;29;20051;-61
2023/03/03 05:54:12;;;;;;;14.30;8.10;;;;;0.00;98814.00;;;;4939138;29;20043;-60
2023/03/03 05:56:39;;;;;;;14.02;9.23;;;;;0.00;98811.00;;;;4943495;29;20044;-59
2023/03/03 05:59:05;;;;;;;18.60;10.27;;;;;-0.10;98817.00;;;;4939706;29;20043;-58
2023/03/03 06:01:32;;;;;;;14.30;8.50;;;;;0.10;98825.00;;;;4949783;29;20047;-60
2023/03/03 06:03:58;;;;;;;15.48;9.48;;;;;0.10;98826.00;;;;4950063;29;20056;-57
2023/03/03 06:06:25;;;;;;;14.77;8.10;;;;;0.10;98830.00;;;;4935841;29;20079;-62
2023/03/03 06:08:52;;;;;;;13.48;8.32;;;;;0.20;98826.00;;;;4934793;29;20377;-61
2023/03/03 06:11:22;;;;;;;14.38;8.25;;;;;0.30;98831.00;;;;4934872;29;20044;-59
2023/03/03 06:13:49;;;;;;;12.63;7.88;;;;;0.30;98833.00;;;;4935451;29;20405;-58
2023/03/03 06:16:15;;;;;;;15.80;8.93;;;;;0.30;98825.00;;;;4933638;29;20067;-60
2023/03/03 06:18:42;;;;;;;14.25;8.45;;;;;0.30;98833.00;;;;4949497;29;20082;-61
2023/03/03 06:21:08;;;;;;;17.73;8.48;;;;;0.30;98833.00;;;;4933417;29;20134;-62
2023/03/03 06:23:35;;;;;;;14.73;8.27;;;;;0.30;98836.00;;;;4935234;29;20052;-62
2023/03/03 06:26:02;;;;;;;16.10;8.57;;;;;0.30;98840.00;;;;4949594;29;20131;-62
2023/03/03 06:28:28;;;;;;;16.10;10.38;;;;;0.30;98834.00;;;;4949671;29;20039;-62
2023/03/03 06:30:55;;;;;;;15.15;9.82;;;;;0.20;98836.00;;;;4934149;29;20047;-61
2023/03/03 06:33:22;;;;;;;16.95;9.98;;;;;0.20;98836.00;;;;4949493;29;20130;-61
2023/03/03 06:35:50;;;;;;;15.02;9.18;;;;;0.20;98830.00;;;;4949387;29;20047;-61
2023/03/03 06:38:17;;;;;;;16.10;9.30;;;;;0.20;98829.00;;;;4949405;29;20504;-61
2023/03/03 06:40:46;;;;;;;18.73;10.77;;;;;0.20;98832.00;;;;4934216;29;20613;-61
2023/03/03 06:43:13;;;;;;;37.22;24.05;;;;;0.20;98839.00;;;;4934695;29;20059;-61
2023/03/03 06:45:39;;;;;;;45.42;36.55;;;;;0.30;98850.00;;;;4934662;29;20412;-61
2023/03/03 06:48:06;;;;;;;23.30;17.40;;;;;0.30;98844.00;;;;4934663;29;20500;-58
2023/03/03 06:50:33;;;;;;;22.27;13.15;;;;;0.20;98845.00;;;;4933988;29;20111;-58
2023/03/03 06:53:14;;;;;;;15.75;10.27;;;;;0.30;98842.00;;;;4934862;29;20044;-58
2023/03/03 06:55:43;;;;;;;16.27;9.05;;;;;0.40;98857.00;;;;4933698;29;20055;-59
2023/03/03 06:58:13;;;;;;;18.13;10.18;;;;;0.50;98856.00;;;;4949867;29;20509;-59
2023/03/03 07:00:55;;;;;;;18.50;9.68;;;;;0.40;98861.00;;;;4931038;29;20043;-60
2023/03/03 07:03:24;;;;;;;15.77;9.38;;;;;0.60;98870.00;;;;4935195;29;20382;-61
2023/03/03 07:05:52;;;;;;;23.13;15.10;;;;;0.60;98875.00;;;;4935665;29;20048;-63
2023/03/03 07:08:21;;;;;;;17.70;12.30;;;;;0.70;98876.00;;;;4935673;29;20076;-57
2023/03/03 07:10:49;;;;;;;17.13;10.27;;;;;0.80;98884.00;;;;4949752;29;20051;-58
2023/03/03 07:13:22;;;;;;;17.52;10.10;;;;;0.90;98884.00;;;;4935345;29;20035;-56
2023/03/03 07:15:50;;;;;;;14.32;9.23;;;;;1.00;98890.00;;;;4935035;29;20047;-54
2023/03/03 07:18:36;;;;;;;18.05;9.73;;;;;1.10;98887.00;;;;4934307;29;20059;-55
2023/03/03 07:21:15;;;;;;;14.90;9.55;;;;;1.20;98885.00;;;;4934302;29;20404;-57
2023/03/03 07:23:43;;;;;;;17.38;10.20;;;;;1.20;98887.00;;;;4935281;29;20055;-56
2023/03/03 07:26:17;;;;;;;18.77;10.73;;;;;1.30;98889.00;;;;4935181;29;20039;-57
2023/03/03 07:28:51;;;;;;;16.50;10.70;;;;;1.40;98901.00;;;;4935430;29;20086;-58
2023/03/03 07:31:40;;;;;;;18.65;10.43;;;;;1.60;98900.00;;;;4934844;29;20500;-56
2023/03/03 07:34:29;;;;;;;20.02;11.13;;;;;1.70;98900.00;;;;4935134;29;20552;-58
2023/03/03 07:37:08;;;;;;;21.33;12.40;;;;;1.70;98902.00;;;;4935046;29;20487;-58
2023/03/03 07:39:39;;;;;;;19.13;11.38;;;;;1.70;98894.00;;;;4934659;29;20591;-56
2023/03/03 07:42:13;;;;;;;17.17;10.68;;;;;1.90;98905.00;;;;4934599;29;20048;-57
2023/03/03 07:44:40;;;;;;;25.42;12.57;;;;;1.90;98905.00;;;;4935123;29;20103;-58
2023/03/03 07:47:17;;;;;;;20.73;11.95;;;;;2.00;98909.00;;;;4933765;29;20103;-58
2023/03/03 07:49:44;;;;;;;20.00;11.68;;;;;2.10;98909.00;;;;4933665;29;20075;-58
2023/03/03 07:52:30;;;;;;;22.40;13.68;;;;;2.30;98918.00;;;;4934510;29;20670;-59
2023/03/03 07:55:00;;;;;;;20.80;13.55;;;;;2.40;98917.00;;;;4933329;29;20099;-58
2023/03/03 07:57:38;;;;;;;19.73;13.07;;;;;2.50;98917.00;;;;4934546;29;20047;-59
2023/03/03 08:00:17;;;;;;;20.75;12.95;;;;;2.60;98920.00;;;;4934315;29;20050;-59
2023/03/03 08:02:46;;;;;;;19.65;12.75;;;;;2.70;98917.00;;;;4934550;29;20089;-60
2023/03/03 08:05:35;;;;;;;22.42;13.95;;;;;2.60;98914.00;;;;4934354;29;20103;-60
2023/03/03 08:08:29;;;;;;;26.80;14.77;;;;;2.70;98926.00;;;;4933203;29;20040;-60
2023/03/03 08:11:00;;;;;;;21.40;13.85;;;;;2.80;98926.00;;;;4933976;29;20044;-60
2023/03/03 08:13:32;;;;;;;23.42;13.15;;;;;3.00;98925.00;;;;4934257;29;21554;-60
2023/03/03 08:16:08;;;;;;;20.85;13.93;;;;;3.20;98926.00;;;;4933496;29;20099;-59
2023/03/03 08:18:38;;;;;;;27.17;16.30;;;;;3.30;98927.00;;;;4934510;29;20412;-60
2023/03/03 08:21:13;;;;;;;27.35;16.13;;;;;3.40;98922.00;;;;4934016;29;20480;-59
2023/03/03 08:23:40;;;;;;;29.73;16.42;;;;;3.60;98926.00;;;;4931928;29;20060;-59
2023/03/03 08:26:08;;;;;;;26.05;15.43;;;;;3.80;98934.00;;;;4928716;29;20054;-58
2023/03/03 08:28:34;;;;;;;25.50;15.68;;;;;4.00;98930.00;;;;4927863;29;20786;-60
2023/03/03 08:31:01;;;;;;;29.15;16.30;;;;;4.00;98930.00;;;;4929060;29;20098;-60
2023/03/03 08:33:45;;;;;;;27.17;17.85;;;;;4.00;98945.00;;;;4927615;29;20051;-60
2023/03/03 08:36:12;;;;;;;27.10;16.25;;;;;3.90;98942.00;;;;4929444;29;20055;-58
2023/03/03 08:38:39;;;;;;;22.17;15.20;;;;;4.00;98940.00;;;;4929688;29;20445;-60
2023/03/03 08:41:06;;;;;;;26.45;16.83;;;;;4.20;98946.00;;;;4929141;29;20922;-59
2023/03/03 08:43:32;;;;;;;27.73;17.05;;;;;4.20;98942.00;;;;4928993;29;20515;-60
2023/03/03 08:46:01;;;;;;;29.08;17.42;;;;;4.30;98942.00;;;;4929389;29;20075;-59
2023/03/03 08:48:28;;;;;;;32.78;18.02;;;;;4.50;98958.00;;;;4929310;29;20416;-60
2023/03/03 08:50:55;;;;;;;31.45;18.58;;;;;4.70;98958.00;;;;4928156;29;20489;-60
2023/03/03 08:53:22;;;;;;;31.25;19.17;;;;;4.80;98959.00;;;;4929708;29;20051;-61
2023/03/03 08:55:49;;;;;;;35.42;19.40;;;;;5.00;98959.00;;;;4926185;29;20059;-59
2023/03/03 08:58:18;;;;;;;31.63;19.25;;;;;5.10;98958.00;;;;4929221;29;20059;-60
2023/03/03 09:00:44;;;;;;;31.65;18.92;;;;;5.00;98963.00;;;;4928563;29;20051;-59
2023/03/03 09:03:15;;;;;;;32.47;18.80;;;;;5.00;98963.00;;;;4942486;29;20397;-59
2023/03/03 09:05:41;;;;;;;32.13;19.17;;;;;5.10;98966.00;;;;4927011;29;20051;-59
2023/03/03 09:08:09;;;;;;;28.42;18.65;;;;;5.30;98962.00;;;;4929748;29;20054;-59
2023/03/03 09:10:36;;;;;;;37.60;21.70;;;;;5.50;98962.00;;;;4927680;29;20607;-59
2023/03/03 09:13:15;;;;;;;36.30;21.45;;;;;5.60;98967.00;;;;4929344;29;20093;-59
2023/03/03 09:15:41;;;;;;;34.95;19.80;;;;;5.60;98962.00;;;;4927716;29;20110;-60
2023/03/03 09:18:26;;;;;;;33.72;20.83;;;;;5.70;98969.00;;;;4929365;29;20150;-60
2023/03/03 09:20:56;;;;;;;35.35;21.40;;;;;5.80;98968.00;;;;4928777;29;20107;-61
2023/03/03 09:23:22;;;;;;;35.05;20.55;;;;;5.80;98963.00;;;;4927960;29;20050;-58
2023/03/03 09:25:50;;;;;;;34.15;20.38;;;;;5.90;98962.00;;;;4928462;29;20098;-61
2023/03/03 09:28:23;;;;;;;37.13;21.67;;;;;5.90;98971.00;;;;4927567;29;20539;-61
2023/03/03 09:30:51;;;;;;;36.45;21.90;;;;;5.90;98970.00;;;;4942314;29;20051;-59
2023/03/03 09:33:25;;;;;;;34.10;20.83;;;;;6.00;98980.00;;;;4935396;29;20070;-61
2023/03/03 09:36:08;;;;;;;;;;;;;6.10;98981.00;;;;4935972;29;20047;-61
2023/03/03 09:38:40;;;;;;;36.47;20.75;;;;;6.20;98984.00;;;;4934789;29;19929;-62
2023/03/03 09:41:28;;;;;;;41.15;21.05;;;;;6.20;98991.00;;;;4936479;29;20051;-62
2023/03/03 09:44:00;;;;;;;35.25;20.83;;;;;6.20;98978.00;;;;4936725;29;20087;-62
2023/03/03 09:46:49;;;;;;;35.42;22.15;;;;;6.30;98982.00;;;;4951943;29;20080;-59
2023/03/03 09:50:07;;;;;;;41.40;21.17;;;;;6.30;98979.00;;;;4948274;29;20051;-60
2023/03/03 09:52:45;;;;;;;37.53;21.58;;;;;6.40;98984.00;;;;4879123;29;20056;-62
2023/03/03 09:55:21;;;;;;;33.53;21.10;;;;;6.40;98979.00;;;;4876738;29;20403;-61
2023/03/03 09:58:06;;;;;;;36.45;22.27;;;;;6.50;98997.00;;;;4919511;29;20055;-61
2023/03/03 10:01:01;;;;;;;40.10;21.48;;;;;6.50;98990.00;;;;4935758;29;20130;-60
2023/03/03 10:03:52;;;;;;;30.58;20.27;;;;;6.70;99000.00;;;;4935819;29;20063;-62
2023/03/03 10:06:32;;;;;;;37.33;23.33;;;;;6.70;98991.00;;;;4935774;29;20048;-61
2023/03/03 10:09:20;;;;;;;38.33;22.60;;;;;6.80;99002.00;;;;4951433;29;20048;-61
2023/03/03 10:12:12;;;;;;;38.95;22.00;;;;;6.70;98987.00;;;;4936070;29;20070;-61
2023/03/03 10:15:03;;;;;;;36.95;22.25;;;;;6.80;99005.00;;;;4936389;29;20059;-61
2023/03/03 10:17:50;;;;;;;38.20;22.50;;;;;6.90;99000.00;;;;4936605;29;20055;-61
2023/03/03 10:20:36;;;;;;;34.78;21.55;;;;;7.00;99003.00;;;;4934871;29;20428;-60
2023/03/03 10:23:58;;;;;;;34.30;22.52;;;;;7.10;99017.00;;;;4950735;29;20420;-58
2023/03/03 10:26:56;;;;;;;37.17;21.70;;;;;7.10;99003.00;;;;4935021;29;20496;-58
2023/03/03 10:30:10;;;;;;;36.28;22.35;;;;;7.20;99017.00;;;;4935254;29;20465;-57
2023/03/03 10:32:44;;;;;;;37.83;23.52;;;;;7.20;99017.00;;;;4916692;29;20064;-57
2023/03/03 10:35:17;;;;;;;37.08;22.90;;;;;7.20;99014.00;;;;4935303;29;20504;-57
2023/03/03 10:38:04;;;;;;;37.28;23.60;;;;;7.30;99009.00;;;;4939100;29;20079;-58
2023/03/03 10:40:49;;;;;;;35.20;21.38;;;;;7.40;99017.00;;;;4938626;29;20044;-57
2023/03/03 10:43:22;;;;;;;40.28;23.30;;;;;7.50;99016.00;;;;4939092;29;20547;-56
2023/03/03 10:46:19;;;;;;;35.38;22.20;;;;;7.50;99007.00;;;;4938980;29;20503;-57
2023/03/03 10:48:54;;;;;;;36.10;22.00;;;;;7.60;99022.00;;;;4938911;29;20118;-57
2023/03/03 10:51:30;;;;;;;37.38;22.40;;;;;7.70;99019.00;;;;4938734;29;20572;-58
2023/03/03 10:54:32;;;;;;;38.72;22.60;;;;;7.80;99025.00;;;;4939232;29;20059;-58
2023/03/03 10:57:22;;;;;;;36.17;21.25;;;;;7.80;99030.00;;;;4938212;29;20047;-57
2023/03/03 11:00:15;;;;;;;34.95;21.20;;;;;7.90;99016.00;;;;4937891;29;20082;-57
2023/03/03 11:03:06;;;;;;;33.95;20.30;;;;;7.90;99019.00;;;;4938138;29;20044;-55
2023/03/03 11:06:03;;;;;;;34.88;21.02;;;;;7.90;99015.00;;;;4953125;29;20043;-55
2023/03/03 11:08:54;;;;;;;36.00;21.35;;;;;7.90;99013.00;;;;4938376;29;20234;-55
2023/03/03 11:11:45;;;;;;;34.85;21.17;;;;;8.10;99005.00;;;;4937831;29;20052;-59
2023/03/03 11:14:29;;;;;;;34.25;20.10;;;;;8.10;98999.00;;;;4938187;29;20047;-55
2023/03/03 11:17:34;;;;;;;37.28;21.50;;;;;8.30;99002.00;;;;4938073;29;20056;-58
2023/03/03 11:20:08;;;;;;;34.38;21.80;;;;;8.30;99003.00;;;;4952451;29;20048;-58
2023/03/03 11:23:02;;;;;;;33.58;21.05;;;;;8.30;98995.00;;;;4952589;29;20111;-57
2023/03/03 11:25:36;;;;;;;34.63;21.20;;;;;8.40;98995.00;;;;4937853;29;20095;-59
2023/03/03 11:28:25;;;;;;;37.35;21.10;;;;;8.50;99000.00;;;;4937933;29;20059;-60
2023/03/03 11:31:07;;;;;;;38.72;21.50;;;;;8.60;99000.00;;;;4937523;29;20047;-58
2023/03/03 11:33:55;;;;;;;32.92;21.17;;;;;8.60;98994.00;;;;4938081;29;20064;-57
2023/03/03 11:36:27;;;;;;;34.30;20.80;;;;;8.80;98994.00;;;;4937557;29;20556;-58
2023/03/03 11:39:07;;;;;;;32.78;21.35;;;;;8.80;99003.00;;;;4937871;29;20088;-58
2023/03/03 11:41:42;;;;;;;33.42;21.45;;;;;8.80;98998.00;;;;4937146;29;20043;-59
2023/03/03 11:44:28;;;;;;;32.45;19.98;;;;;9.00;98991.00;;;;4952455;29;20496;-59
2023/03/03 11:47:04;;;;;;;36.42;19.83;;;;;9.10;99004.00;;;;4937179;29;20040;-59
2023/03/03 11:49:52;;;;;;;31.92;20.20;;;;;9.30;98994.00;;;;4937667;29;20051;-60
2023/03/03 11:52:23;;;;;;;33.75;20.27;;;;;9.20;98987.00;;;;4937765;29;20067;-59
2023/03/03 11:54:53;;;;;;;29.63;18.85;;;;;9.20;98988.00;;;;4937469;29;20052;-57
2023/03/03 11:57:28;;;;;;;32.05;20.10;;;;;9.20;98990.00;;;;4937429;29;20456;-59
2023/03/03 12:00:26;;;;;;;30.38;19.10;;;;;9.20;98989.00;;;;4937168;29;20079;-59
2023/03/03 12:03:12;;;;;;;30.23;18.90;;;;;9.20;98983.00;;;;4903117;29;20432;-59
2023/03/03 12:05:55;;;;;;;30.55;18.80;;;;;9.40;98979.00;;;;4937291;29;20051;-59
2023/03/03 12:08:46;;;;;;;41.33;24.25;;;;;9.40;98986.00;;;;4939682;29;20048;-59
2023/03/03 12:11:50;;;;;;;33.08;19.52;;;;;9.50;98974.00;;;;4921876;29;20402;-59
2023/03/03 12:14:39;;;;;;;34.63;20.02;;;;;9.50;98988.00;;;;4955509;29;20050;-60
2023/03/03 12:17:31;;;;;;;36.47;21.17;;;;;9.50;98980.00;;;;4943243;29;20103;-58
2023/03/03 12:20:07;;;;;;;33.30;20.38;;;;;9.60;98985.00;;;;4939562;29;20115;-58
2023/03/03 12:22:37;;;;;;;29.25;18.98;;;;;9.70;98976.00;;;;4941483;29;20048;-59
2023/03/03 12:25:21;;;;;;;32.97;19.70;;;;;9.80;98973.00;;;;4941142;29;20047;-58
2023/03/03 12:27:51;;;;;;;;;;;;;9.90;98992.00;;;;4940762;29;20138;-58
2023/03/03 12:30:47;;;;;;;29.95;19.77;;;;;9.80;98992.00;;;;4938767;29;19923;-58
2023/03/03 12:33:36;;;;;;;34.35;20.10;;;;;9.90;98997.00;;;;4956115;29;20523;-59
2023/03/03 12:36:28;;;;;;;33.85;21.05;;;;;9.80;98990.00;;;;4940680;29;20047;-60
2023/03/03 12:39:20;;;;;;;34.53;20.65;;;;;9.80;98984.00;;;;4942415;29;20078;-59
2023/03/03 12:42:22;;;;;;;33.05;19.88;;;;;9.80;98981.00;;;;4956168;29;20053;-59
2023/03/03 12:45:02;;;;;;;32.80;19.58;;;;;9.90;98976.00;;;;4941821;29;20044;-59
2023/03/03 12:47:48;;;;;;;37.75;21.58;;;;;9.80;98972.00;;;;4941863;29;20174;-60
2023/03/03 12:50:23;;;;;;;31.70;19.77;;;;;9.80;98969.00;;;;4939884;29;20058;-59
2023/03/03 12:53:11;;;;;;;36.63;21.45;;;;;9.90;98966.00;;;;4940834;29;20067;-59